createdAt,value
2022-10-25T00:00:43.604Z,99296.00
2022-10-25T00:01:47.556Z,99297.88
2022-10-25T00:02:49.302Z,99298.56
2022-10-25T00:03:51.483Z,99300.75
2022-10-25T00:04:53.124Z,99294.47
2022-10-25T00:05:54.836Z,99289.81
2022-10-25T00:06:56.476Z,99300.66
2022-10-25T00:07:58.163Z,99295.50
2022-10-25T00:08:59.917Z,99292.50
2022-10-25T00:10:01.619Z,99292.13
2022-10-25T00:11:04.372Z,99296.31
2022-10-25T00:12:06.315Z,99279.72
2022-10-25T00:13:07.992Z,99287.72
2022-10-25T00:14:10.021Z,99285.25
2022-10-25T00:15:14.649Z,99283.47
2022-10-25T00:16:19.691Z,99289.28
2022-10-25T00:17:21.374Z,99276.72
2022-10-25T00:18:23.118Z,99287.81
2022-10-25T00:19:24.830Z,99280.16
2022-10-25T00:20:26.513Z,99282.72
2022-10-25T00:21:28.185Z,99284.94
2022-10-25T00:22:29.834Z,99267.31
2022-10-25T00:23:31.480Z,99281.19
2022-10-25T00:24:33.200Z,99281.78
2022-10-25T00:25:34.846Z,99278.06
2022-10-25T00:26:36.656Z,99277.47
2022-10-25T00:27:38.942Z,99281.53
2022-10-25T00:28:41.029Z,99280.16
2022-10-25T00:29:42.767Z,99286.38
2022-10-25T00:30:44.394Z,99271.19
2022-10-25T00:31:48.958Z,99282.03
2022-10-25T00:32:52.943Z,99276.78
2022-10-25T00:33:54.627Z,99269.19
2022-10-25T00:34:56.326Z,99277.22
2022-10-25T00:36:08.063Z,99274.13
2022-10-25T00:37:09.763Z,99273.66
2022-10-25T00:38:11.405Z,99281.66
2022-10-25T00:39:13.053Z,99276.34
2022-10-25T00:40:14.816Z,99277.59
2022-10-25T00:41:19.790Z,99275.84
2022-10-25T00:42:24.509Z,99279.09
2022-10-25T00:43:32.013Z,99268.47
2022-10-25T00:44:36.969Z,99279.69
2022-10-25T00:45:38.931Z,99274.16
2022-10-25T00:46:41.058Z,99274.53
2022-10-25T00:47:59.298Z,99278.22
2022-10-25T00:49:19.089Z,99274.53
2022-10-25T00:50:28.332Z,99267.59
2022-10-25T00:51:37.486Z,99276.28
2022-10-25T00:52:41.092Z,99265.03
2022-10-25T00:53:43.342Z,99267.69
2022-10-25T00:54:50.746Z,99276.88
2022-10-25T00:56:23.809Z,99260.09
2022-10-25T00:57:30.832Z,99277.91
2022-10-25T00:58:35.638Z,99268.28
2022-10-25T00:59:38.690Z,99264.94
2022-10-25T01:00:40.374Z,99267.75
2022-10-25T01:01:42.613Z,99260.44
2022-10-25T01:02:44.809Z,99267.94
2022-10-25T01:03:51.339Z,99266.69
2022-10-25T01:04:54.052Z,99268.75
2022-10-25T01:05:58.475Z,99256.28
2022-10-25T01:07:02.434Z,99269.28
2022-10-25T01:08:05.444Z,99265.00
2022-10-25T01:09:13.820Z,99263.81
2022-10-25T01:10:15.882Z,99257.91
2022-10-25T01:12:24.426Z,99256.13
2022-10-25T01:13:26.123Z,99257.75
2022-10-25T01:14:28.708Z,99257.91
2022-10-25T01:15:46.886Z,99257.78
2022-10-25T01:16:54.336Z,99260.22
2022-10-25T01:18:09.353Z,99256.50
2022-10-25T01:19:29.895Z,99264.69
2022-10-25T01:21:12.137Z,99255.34
2022-10-25T01:22:32.261Z,99261.25
2022-10-25T01:23:45.389Z,99262.53
2022-10-25T01:25:11.412Z,99260.69
2022-10-25T01:26:47.086Z,99256.53
2022-10-25T01:28:05.055Z,99257.56
2022-10-25T01:29:21.594Z,99262.19
2022-10-25T01:30:25.833Z,99256.50
2022-10-25T01:31:36.258Z,99258.00
2022-10-25T01:32:47.036Z,99258.59
2022-10-25T01:33:57.297Z,99261.03
2022-10-25T01:35:09.686Z,99257.56
2022-10-25T01:36:49.846Z,99256.31
2022-10-25T01:38:06.178Z,99260.59
2022-10-25T01:39:14.208Z,99265.69
2022-10-25T01:40:24.664Z,99260.38
2022-10-25T01:41:28.911Z,99263.84
2022-10-25T01:42:38.932Z,99262.00
2022-10-25T01:43:44.242Z,99268.13
2022-10-25T01:45:50.395Z,99259.78
2022-10-25T01:47:15.849Z,99263.25
2022-10-25T01:48:23.444Z,99259.75
2022-10-25T01:49:41.940Z,99256.50
2022-10-25T01:50:46.705Z,99265.88
2022-10-25T01:51:48.374Z,99267.50
2022-10-25T01:52:50.147Z,99250.38
2022-10-25T01:53:52.541Z,99257.69
2022-10-25T01:54:54.604Z,99257.44
2022-10-25T01:56:00.880Z,99259.84
2022-10-25T01:57:29.852Z,99260.91
2022-10-25T01:58:37.434Z,99266.22
2022-10-25T02:00:10.025Z,99261.16
2022-10-25T02:01:26.791Z,99255.03
2022-10-25T02:02:40.732Z,99254.44
2022-10-25T02:04:08.414Z,99251.19
2022-10-25T02:05:27.741Z,99250.81
2022-10-25T02:06:55.617Z,99241.22
2022-10-25T02:08:23.803Z,99232.66
2022-10-25T02:09:36.972Z,99228.84
2022-10-25T02:10:53.513Z,99216.88
2022-10-25T02:11:59.423Z,99227.81
2022-10-25T02:13:27.317Z,99237.16
2022-10-25T02:14:39.021Z,99228.09
2022-10-25T02:15:49.099Z,99235.47
2022-10-25T02:16:56.784Z,99229.59
2022-10-25T02:18:00.863Z,99228.22
2022-10-25T02:19:06.752Z,99227.00
2022-10-25T02:20:09.773Z,99225.88
2022-10-25T02:21:14.180Z,99224.75
2022-10-25T02:22:16.450Z,99225.44
2022-10-25T02:23:20.756Z,99226.47
2022-10-25T02:24:28.439Z,99229.13
2022-10-25T02:25:34.033Z,99226.47
2022-10-25T02:26:36.822Z,99227.06
2022-10-25T02:27:40.079Z,99231.69
2022-10-25T02:28:42.629Z,99226.97
2022-10-25T02:29:45.634Z,99221.75
2022-10-25T02:30:50.177Z,99238.63
2022-10-25T02:31:51.970Z,99235.75
2022-10-25T02:32:53.622Z,99239.00
2022-10-25T02:33:55.320Z,99241.78
2022-10-25T02:34:57.378Z,99242.84
2022-10-25T02:36:21.198Z,99246.06
2022-10-25T02:37:22.898Z,99244.44
2022-10-25T02:38:24.581Z,99244.69
2022-10-25T02:39:31.283Z,99248.94
2022-10-25T02:40:34.187Z,99249.75
2022-10-25T02:41:35.929Z,99251.38
2022-10-25T02:42:37.588Z,99236.19
2022-10-25T02:43:39.313Z,99253.59
2022-10-25T02:44:40.962Z,99250.13
2022-10-25T02:45:42.685Z,99245.50
2022-10-25T02:46:44.353Z,99238.56
2022-10-25T02:47:46.343Z,99245.72
2022-10-25T02:48:49.227Z,99243.88
2022-10-25T02:49:51.012Z,99243.72
2022-10-25T02:50:52.709Z,99258.66
2022-10-25T02:51:54.509Z,99252.84
2022-10-25T02:52:56.197Z,99253.44
2022-10-25T02:53:58.257Z,99250.78
2022-10-25T02:54:59.953Z,99248.72
2022-10-25T02:56:13.636Z,99253.63
2022-10-25T02:57:15.284Z,99258.09
2022-10-25T02:58:16.923Z,99239.75
2022-10-25T02:59:19.954Z,99249.91
2022-10-25T03:00:21.701Z,99243.69
2022-10-25T03:01:24.457Z,99244.97
2022-10-25T03:02:26.387Z,99244.97
2022-10-25T03:03:28.604Z,99243.34
2022-10-25T03:04:30.271Z,99239.28
2022-10-25T03:05:31.909Z,99244.97
2022-10-25T03:06:33.570Z,99245.78
2022-10-25T03:07:35.228Z,99246.81
2022-10-25T03:08:37.940Z,99247.53
2022-10-25T03:09:39.628Z,99237.94
2022-10-25T03:10:41.354Z,99254.59
2022-10-25T03:11:43.011Z,99248.84
2022-10-25T03:12:44.906Z,99246.63
2022-10-25T03:13:46.929Z,99248.19
2022-10-25T03:14:48.596Z,99253.34
2022-10-25T03:15:50.397Z,99242.53
2022-10-25T03:16:52.024Z,99241.34
2022-10-25T03:17:53.647Z,99243.47
2022-10-25T03:18:59.277Z,99246.97
2022-10-25T03:20:01.057Z,99241.94
2022-10-25T03:21:04.229Z,99238.88
2022-10-25T03:22:05.893Z,99242.09
2022-10-25T03:23:07.880Z,99241.03
2022-10-25T03:24:09.579Z,99228.50
2022-10-25T03:25:11.272Z,99236.22
2022-10-25T03:26:12.978Z,99231.72
2022-10-25T03:27:14.740Z,99235.53
2022-10-25T03:28:16.364Z,99229.81
2022-10-25T03:29:18.127Z,99236.31
2022-10-25T03:30:20.027Z,99231.00
2022-10-25T03:31:21.740Z,99233.19
2022-10-25T03:32:23.413Z,99224.22
2022-10-25T03:33:26.081Z,99215.09
2022-10-25T03:34:27.874Z,99199.88
2022-10-25T03:35:29.557Z,99221.56
2022-10-25T03:36:31.344Z,99221.56
2022-10-25T03:37:32.996Z,99216.25
2022-10-25T03:38:34.682Z,99214.63
2022-10-25T03:39:36.339Z,99216.63
2022-10-25T03:40:38.013Z,99222.38
2022-10-25T03:41:39.697Z,99215.09
2022-10-25T03:42:41.440Z,99221.47
2022-10-25T03:43:43.144Z,99225.75
2022-10-25T03:44:44.774Z,99213.16
2022-10-25T03:45:46.461Z,99224.06
2022-10-25T03:46:48.155Z,99224.66
2022-10-25T03:47:49.996Z,99220.16
2022-10-25T03:48:51.853Z,99213.66
2022-10-25T03:49:53.574Z,99218.34
2022-10-25T03:50:55.519Z,99225.47
2022-10-25T03:52:00.044Z,99215.09
2022-10-25T03:53:05.878Z,99232.16
2022-10-25T03:54:07.822Z,99207.97
2022-10-25T03:55:10.272Z,99228.94
2022-10-25T03:56:11.947Z,99228.19
2022-10-25T03:57:13.875Z,99223.41
2022-10-25T03:58:16.057Z,99219.63
2022-10-25T03:59:17.675Z,99226.19
2022-10-25T04:00:19.345Z,99224.34
2022-10-25T04:01:21.134Z,99225.81
2022-10-25T04:02:22.842Z,99225.50
2022-10-25T04:03:24.691Z,99223.72
2022-10-25T04:04:26.411Z,99226.19
2022-10-25T04:05:28.118Z,99224.13
2022-10-25T04:06:30.051Z,99221.31
2022-10-25T04:07:31.744Z,99230.03
2022-10-25T04:08:33.427Z,99233.44
2022-10-25T04:09:35.223Z,99234.47
2022-10-25T04:10:36.866Z,99227.69
2022-10-25T04:11:38.755Z,99217.13
2022-10-25T04:12:40.458Z,99227.91
2022-10-25T04:13:42.112Z,99219.72
2022-10-25T04:14:43.793Z,99223.59
2022-10-25T04:15:45.484Z,99218.88
2022-10-25T04:16:47.190Z,99214.41
2022-10-25T04:17:50.611Z,99219.38
2022-10-25T04:18:53.508Z,99217.75
2022-10-25T04:19:55.171Z,99213.66
2022-10-25T04:20:58.736Z,99209.78
2022-10-25T04:22:02.383Z,99214.88
2022-10-25T04:23:04.050Z,99219.31
2022-10-25T04:24:06.080Z,99216.44
2022-10-25T04:25:08.216Z,99207.06
2022-10-25T04:26:10.029Z,99214.75
2022-10-25T04:27:11.859Z,99214.53
2022-10-25T04:28:13.493Z,99217.78
2022-10-25T04:29:16.107Z,99222.06
2022-10-25T04:30:17.941Z,99217.78
2022-10-25T04:31:20.511Z,99209.25
2022-10-25T04:32:22.174Z,99211.47
2022-10-25T04:33:23.885Z,99204.97
2022-10-25T04:34:25.506Z,99219.81
2022-10-25T04:35:27.236Z,99216.47
2022-10-25T04:36:30.411Z,99219.38
2022-10-25T04:37:32.067Z,99212.25
2022-10-25T04:38:33.843Z,99218.34
2022-10-25T04:39:35.545Z,99212.88
2022-10-25T04:40:37.197Z,99209.41
2022-10-25T04:41:38.957Z,99213.25
2022-10-25T04:42:40.745Z,99208.38
2022-10-25T04:43:42.637Z,99211.44
2022-10-25T04:44:44.277Z,99212.81
2022-10-25T04:45:45.943Z,99215.25
2022-10-25T04:46:48.887Z,99205.34
2022-10-25T04:47:50.885Z,99213.31
2022-10-25T04:48:52.603Z,99204.38
2022-10-25T04:49:54.279Z,99208.81
2022-10-25T04:50:59.393Z,99207.63
2022-10-25T04:52:01.052Z,99210.44
2022-10-25T04:53:02.710Z,99216.34
2022-10-25T04:54:04.443Z,99208.44
2022-10-25T04:55:06.350Z,99213.78
2022-10-25T04:56:11.294Z,99201.84
2022-10-25T04:57:12.938Z,99199.78
2022-10-25T04:58:14.586Z,99210.53
2022-10-25T04:59:16.292Z,99208.06
2022-10-25T05:00:17.987Z,99212.69
2022-10-25T05:01:19.868Z,99206.78
2022-10-25T05:02:21.567Z,99210.44
2022-10-25T05:03:23.290Z,99212.06
2022-10-25T05:04:25.060Z,99222.25
2022-10-25T05:05:27.272Z,99225.50
2022-10-25T05:06:28.943Z,99213.91
2022-10-25T05:07:30.631Z,99221.47
2022-10-25T05:08:32.343Z,99218.22
2022-10-25T05:09:34.095Z,99224.72
2022-10-25T05:10:35.906Z,99218.81
2022-10-25T05:12:44.445Z,99225.06
2022-10-25T05:13:47.199Z,99218.56
2022-10-25T05:14:48.837Z,99221.53
2022-10-25T05:15:59.051Z,99222.97
2022-10-25T05:17:00.772Z,99228.19
2022-10-25T05:18:02.584Z,99225.94
2022-10-25T05:19:04.243Z,99222.25
2022-10-25T05:20:06.633Z,99228.50
2022-10-25T05:21:10.379Z,99218.50
2022-10-25T05:22:12.062Z,99213.38
2022-10-25T05:23:13.706Z,99218.81
2022-10-25T05:24:15.394Z,99222.88
2022-10-25T05:25:17.599Z,99232.25
2022-10-25T05:26:21.184Z,99231.81
2022-10-25T05:27:22.827Z,99223.84
2022-10-25T05:28:24.473Z,99233.56
2022-10-25T05:29:26.265Z,99232.97
2022-10-25T05:30:27.939Z,99229.84
2022-10-25T05:31:31.420Z,99235.69
2022-10-25T05:32:33.188Z,99229.13
2022-10-25T05:33:34.884Z,99215.84
2022-10-25T05:34:36.574Z,99212.81
2022-10-25T05:35:38.241Z,99238.09
2022-10-25T05:36:39.884Z,99239.50
2022-10-25T05:37:41.499Z,99241.53
2022-10-25T05:38:43.194Z,99232.06
2022-10-25T05:39:44.833Z,99228.53
2022-10-25T05:40:53.982Z,99232.50
2022-10-25T05:41:55.664Z,99235.13
2022-10-25T05:42:57.384Z,99230.16
2022-10-25T05:43:59.985Z,99241.75
2022-10-25T05:45:01.750Z,99236.81
2022-10-25T05:46:18.313Z,99240.63
2022-10-25T05:47:19.958Z,99241.81
2022-10-25T05:48:21.628Z,99242.75
2022-10-25T05:49:23.295Z,99237.56
2022-10-25T05:50:25.048Z,99234.69
2022-10-25T05:51:36.161Z,99246.41
2022-10-25T05:52:43.025Z,99248.38
2022-10-25T05:53:52.883Z,99248.75
2022-10-25T05:54:54.533Z,99245.41
2022-10-25T05:56:00.235Z,99249.22
2022-10-25T05:57:01.925Z,99249.38
2022-10-25T05:58:04.515Z,99255.03
2022-10-25T05:59:09.262Z,99249.84
2022-10-25T06:00:11.761Z,99249.75
2022-10-25T06:01:16.869Z,99260.06
2022-10-25T06:02:18.787Z,99254.84
2022-10-25T06:03:20.534Z,99252.56
2022-10-25T06:04:22.923Z,99256.16
2022-10-25T06:05:24.558Z,99249.09
2022-10-25T06:06:26.554Z,99255.22
2022-10-25T06:07:28.212Z,99256.78
2022-10-25T06:08:31.361Z,99255.63
2022-10-25T06:09:33.059Z,99257.94
2022-10-25T06:10:34.777Z,99257.25
2022-10-25T06:11:37.386Z,99257.13
2022-10-25T06:12:39.082Z,99260.72
2022-10-25T06:13:40.867Z,99260.59
2022-10-25T06:14:42.529Z,99255.84
2022-10-25T06:15:44.167Z,99268.47
2022-10-25T06:16:45.832Z,99275.06
2022-10-25T06:17:47.509Z,99273.34
2022-10-25T06:18:49.476Z,99277.38
2022-10-25T06:19:51.134Z,99276.22
2022-10-25T06:20:52.781Z,99279.81
2022-10-25T06:21:55.368Z,99273.75
2022-10-25T06:22:57.010Z,99275.25
2022-10-25T06:23:59.772Z,99269.78
2022-10-25T06:25:01.436Z,99269.91
2022-10-25T06:26:06.665Z,99270.81
2022-10-25T06:27:08.391Z,99273.59
2022-10-25T06:28:10.663Z,99270.69
2022-10-25T06:29:12.356Z,99275.06
2022-10-25T06:30:14.050Z,99266.50
2022-10-25T06:31:17.803Z,99270.06
2022-10-25T06:32:19.437Z,99281.16
2022-10-25T06:33:24.456Z,99283.47
2022-10-25T06:34:29.544Z,99285.63
2022-10-25T06:35:31.278Z,99265.22
2022-10-25T06:36:33.006Z,99284.47
2022-10-25T06:37:34.660Z,99280.03
2022-10-25T06:38:36.307Z,99283.78
2022-10-25T06:39:38.014Z,99286.19
2022-10-25T06:40:39.654Z,99281.38
2022-10-25T06:41:41.307Z,99286.03
2022-10-25T06:42:42.937Z,99280.25
2022-10-25T06:43:44.746Z,99276.59
2022-10-25T06:44:46.424Z,99277.50
2022-10-25T06:45:48.056Z,99282.03
2022-10-25T06:47:15.914Z,99280.47
2022-10-25T06:48:11.370Z,99269.22
2022-10-25T06:49:13.035Z,99279.84
2022-10-25T06:50:15.036Z,99275.66
2022-10-25T06:51:16.773Z,99282.72
2022-10-25T06:52:18.450Z,99278.25
2022-10-25T06:53:20.157Z,99277.97
2022-10-25T06:54:21.869Z,99276.84
2022-10-25T06:55:23.651Z,99274.09
2022-10-25T06:56:26.921Z,99272.06
2022-10-25T06:57:28.600Z,99268.41
2022-10-25T06:58:31.334Z,99266.53
2022-10-25T06:59:32.995Z,99256.56
2022-10-25T07:00:34.880Z,99266.72
2022-10-25T07:01:36.740Z,99261.03
2022-10-25T07:02:38.512Z,99260.94
2022-10-25T07:03:40.724Z,99264.56
2022-10-25T07:04:42.361Z,99262.28
2022-10-25T07:05:44.000Z,99255.66
2022-10-25T07:06:47.010Z,99259.91
2022-10-25T07:07:50.166Z,99260.16
2022-10-25T07:08:57.192Z,99259.03
2022-10-25T07:09:58.864Z,99260.91
2022-10-25T07:11:00.976Z,99266.91
2022-10-25T07:12:02.632Z,99256.81
2022-10-25T07:13:04.276Z,99256.84
2022-10-25T07:14:05.986Z,99254.66
2022-10-25T07:15:08.271Z,99254.09
2022-10-25T07:16:12.384Z,99254.03
2022-10-25T07:17:14.029Z,99252.56
2022-10-25T07:18:16.289Z,99243.31
2022-10-25T07:19:17.977Z,99248.31
2022-10-25T07:20:19.599Z,99252.50
2022-10-25T07:21:22.979Z,99255.47
2022-10-25T07:22:25.528Z,99254.50
2022-10-25T07:23:28.582Z,99250.31
2022-10-25T07:24:30.224Z,99240.25
2022-10-25T07:25:31.883Z,99251.75
2022-10-25T07:26:35.660Z,99249.28
2022-10-25T07:27:37.385Z,99247.84
2022-10-25T07:28:39.979Z,99251.94
2022-10-25T07:29:42.093Z,99254.00
2022-10-25T07:30:47.482Z,99248.00
2022-10-25T07:31:49.149Z,99245.47
2022-10-25T07:32:50.796Z,99239.91
2022-10-25T07:33:54.027Z,99240.47
2022-10-25T07:34:55.696Z,99242.78
2022-10-25T07:36:09.708Z,99253.84
2022-10-25T07:37:12.063Z,99245.50
2022-10-25T07:38:14.467Z,99244.16
2022-10-25T07:39:16.126Z,99244.94
2022-10-25T07:40:17.783Z,99246.09
2022-10-25T07:41:19.710Z,99240.66
2022-10-25T07:42:21.404Z,99240.66
2022-10-25T07:43:23.094Z,99231.91
2022-10-25T07:44:25.146Z,99240.81
2022-10-25T07:45:28.876Z,99233.63
2022-10-25T07:46:32.931Z,99226.91
2022-10-25T07:47:34.623Z,99237.03
2022-10-25T07:48:37.533Z,99223.28
2022-10-25T07:49:40.075Z,99226.88
2022-10-25T07:50:41.883Z,99234.25
2022-10-25T07:51:43.926Z,99221.75
2022-10-25T07:52:46.646Z,99220.47
2022-10-25T07:53:48.357Z,99212.59
2022-10-25T07:54:49.999Z,99218.84
2022-10-25T07:55:57.432Z,99221.41
2022-10-25T07:56:59.252Z,99218.13
2022-10-25T07:58:02.095Z,99210.28
2022-10-25T07:59:03.777Z,99212.44
2022-10-25T08:00:10.278Z,99212.53
2022-10-25T08:01:14.626Z,99223.84
2022-10-25T08:02:16.587Z,99210.03
2022-10-25T08:03:18.973Z,99206.59
2022-10-25T08:04:20.806Z,99212.63
2022-10-25T08:05:23.182Z,99204.69
2022-10-25T08:06:25.800Z,99208.28
2022-10-25T08:07:27.999Z,99200.97
2022-10-25T08:08:30.696Z,99209.91
2022-10-25T08:09:38.409Z,99205.41
2022-10-25T08:10:44.458Z,99214.31
2022-10-25T08:11:46.109Z,99209.28
2022-10-25T08:12:49.311Z,99205.75
2022-10-25T08:13:51.095Z,99208.75
2022-10-25T08:14:52.800Z,99205.53
2022-10-25T08:15:56.405Z,99204.84
2022-10-25T08:16:58.098Z,99205.59
2022-10-25T08:18:00.969Z,99204.16
2022-10-25T08:19:02.634Z,99198.66
2022-10-25T08:20:04.652Z,99203.50
2022-10-25T08:21:06.597Z,99201.41
2022-10-25T08:22:08.981Z,99201.22
2022-10-25T08:23:10.898Z,99201.53
2022-10-25T08:24:12.688Z,99190.97
2022-10-25T08:25:14.502Z,99200.13
2022-10-25T08:26:16.296Z,99193.19
2022-10-25T08:27:17.971Z,99194.09
2022-10-25T08:28:20.623Z,99196.31
2022-10-25T08:29:22.282Z,99191.72
2022-10-25T08:30:24.048Z,99192.81
2022-10-25T08:31:25.726Z,99204.88
2022-10-25T08:32:28.617Z,99181.81
2022-10-25T08:33:31.133Z,99197.00
2022-10-25T08:34:33.349Z,99193.16
2022-10-25T08:35:35.170Z,99195.69
2022-10-25T08:36:36.847Z,99192.94
2022-10-25T08:37:38.520Z,99187.13
2022-10-25T08:38:40.153Z,99179.91
2022-10-25T08:39:41.821Z,99183.06
2022-10-25T08:40:43.432Z,99197.53
2022-10-25T08:42:25.120Z,99193.91
2022-10-25T08:43:42.001Z,99185.66
2022-10-25T08:45:00.510Z,99186.25
2022-10-25T08:46:10.692Z,99180.25
2022-10-25T08:47:21.215Z,99187.63
2022-10-25T08:48:32.850Z,99180.59
2022-10-25T08:49:53.095Z,99174.47
2022-10-25T08:51:02.094Z,99171.56
2022-10-25T08:52:06.611Z,99165.31
2022-10-25T08:53:16.578Z,99166.00
2022-10-25T08:54:24.174Z,99176.50
2022-10-25T08:55:32.247Z,99170.84
2022-10-25T08:56:39.515Z,99161.00
2022-10-25T08:57:47.189Z,99167.69
2022-10-25T08:59:00.277Z,99157.56
2022-10-25T09:00:11.439Z,99155.66
2022-10-25T09:01:27.354Z,99158.47
2022-10-25T09:02:45.170Z,99156.34
2022-10-25T09:03:47.014Z,99152.16
2022-10-25T09:04:48.805Z,99149.47
2022-10-25T09:06:00.215Z,99159.06
2022-10-25T09:07:14.121Z,99147.78
2022-10-25T09:08:15.808Z,99147.38
2022-10-25T09:09:42.579Z,99150.03
2022-10-25T09:10:50.274Z,99151.75
2022-10-25T09:12:42.816Z,99147.88
2022-10-25T09:14:04.718Z,99136.91
2022-10-25T09:15:40.407Z,99139.84
2022-10-25T09:16:53.244Z,99140.03
2022-10-25T09:17:55.532Z,99136.88
2022-10-25T09:18:57.567Z,99131.88
2022-10-25T09:20:37.257Z,99132.50
2022-10-25T09:21:48.050Z,99128.13
2022-10-25T09:22:53.866Z,99125.50
2022-10-25T09:24:10.701Z,99131.91
2022-10-25T09:25:39.852Z,99125.19
2022-10-25T09:26:47.728Z,99122.91
2022-10-25T09:28:08.348Z,99124.25
2022-10-25T09:29:28.006Z,99115.53
2022-10-25T09:30:41.538Z,99119.38
2022-10-25T09:31:51.290Z,99114.59
2022-10-25T09:32:57.029Z,99115.09
2022-10-25T09:34:04.442Z,99111.94
2022-10-25T09:35:15.479Z,99109.78
2022-10-25T09:36:17.321Z,99108.06
2022-10-25T09:37:27.254Z,99110.31
2022-10-25T09:38:40.824Z,99102.03
2022-10-25T09:39:48.410Z,99102.31
2022-10-25T09:40:59.993Z,99100.22
2022-10-25T09:42:03.360Z,99100.53
2022-10-25T09:43:14.718Z,99086.72
2022-10-25T09:44:41.902Z,99092.13
2022-10-25T09:45:55.898Z,99092.63
2022-10-25T09:47:08.934Z,99082.66
2022-10-25T09:48:28.902Z,99075.84
2022-10-25T09:49:53.082Z,99074.06
2022-10-25T09:51:00.665Z,99067.63
2022-10-25T09:52:33.326Z,99072.00
2022-10-25T09:53:40.333Z,99062.91
2022-10-25T09:55:01.780Z,99063.59
2022-10-25T09:56:05.043Z,99064.72
2022-10-25T09:57:06.771Z,99062.72
2022-10-25T09:58:17.029Z,99063.34
2022-10-25T09:59:18.724Z,99058.41
2022-10-25T10:00:20.625Z,99057.38
2022-10-25T10:01:28.712Z,99053.84
2022-10-25T10:02:30.702Z,99051.28
2022-10-25T10:03:36.326Z,99048.38
2022-10-25T10:04:39.273Z,99052.53
2022-10-25T10:05:55.294Z,99050.66
2022-10-25T10:07:01.632Z,99057.88
2022-10-25T10:08:03.281Z,99048.91
2022-10-25T10:09:12.829Z,99046.56
2022-10-25T10:10:19.352Z,99052.72
2022-10-25T10:11:21.391Z,99050.94
2022-10-25T10:12:55.473Z,99044.34
2022-10-25T10:14:06.153Z,99038.72
2022-10-25T10:15:22.305Z,99039.47
2022-10-25T10:16:27.270Z,99045.00
2022-10-25T10:17:30.599Z,99039.94
2022-10-25T10:18:33.973Z,99038.84
2022-10-25T10:19:35.642Z,99042.88
2022-10-25T10:20:37.358Z,99036.94
2022-10-25T10:21:44.062Z,99045.44
2022-10-25T10:24:02.303Z,99044.94
2022-10-25T10:25:04.569Z,99039.00
2022-10-25T10:26:15.077Z,99036.88
2022-10-25T10:27:28.684Z,99035.41
2022-10-25T10:28:31.394Z,99039.75
2022-10-25T10:29:36.529Z,99034.84
2022-10-25T10:30:39.075Z,99032.06
2022-10-25T10:31:47.543Z,99028.00
2022-10-25T10:32:57.073Z,99032.63
2022-10-25T10:33:59.586Z,99030.31
2022-10-25T10:35:03.579Z,99032.56
2022-10-25T10:36:22.370Z,99030.34
2022-10-25T10:37:29.220Z,99023.28
2022-10-25T10:38:30.910Z,99022.94
2022-10-25T10:39:32.800Z,99023.81
2022-10-25T10:40:34.484Z,99022.50
2022-10-25T10:41:38.499Z,99025.16
2022-10-25T10:42:42.942Z,99020.84
2022-10-25T10:43:44.691Z,99018.03
2022-10-25T10:45:10.006Z,99019.09
2022-10-25T10:46:15.959Z,99021.84
2022-10-25T10:47:21.526Z,99011.59
2022-10-25T10:48:24.628Z,99019.41
2022-10-25T10:49:36.266Z,99016.41
2022-10-25T10:50:38.266Z,99020.47
2022-10-25T10:51:44.670Z,99020.88
2022-10-25T10:52:55.200Z,99020.09
2022-10-25T10:54:23.633Z,99017.19
2022-10-25T10:55:33.025Z,99015.44
2022-10-25T10:56:34.713Z,99015.66
2022-10-25T10:57:37.137Z,99008.00
2022-10-25T10:58:39.394Z,99006.41
2022-10-25T10:59:53.501Z,99012.31
2022-10-25T11:01:16.636Z,99011.53
2022-10-25T11:02:40.129Z,99010.28
2022-10-25T11:03:53.495Z,99007.97
2022-10-25T11:05:02.149Z,99008.16
2022-10-25T11:06:07.103Z,99003.72
2022-10-25T11:07:24.753Z,99002.72
2022-10-25T11:08:26.416Z,99001.72
2022-10-25T11:09:28.069Z,99003.13
2022-10-25T11:10:35.008Z,98996.41
2022-10-25T11:11:36.673Z,99000.22
2022-10-25T11:12:41.197Z,98994.91
2022-10-25T11:13:51.906Z,98993.78
2022-10-25T11:14:55.907Z,99009.13
2022-10-25T11:16:06.212Z,98996.56
2022-10-25T11:17:32.020Z,99007.28
2022-10-25T11:19:26.370Z,99000.09
2022-10-25T11:20:34.449Z,98997.34
2022-10-25T11:22:20.519Z,98995.75
2022-10-25T11:23:30.541Z,98985.53
2022-10-25T11:25:07.769Z,98988.81
2022-10-25T11:26:48.396Z,98992.56
2022-10-25T11:28:08.795Z,98994.94
2022-10-25T11:29:15.831Z,98990.22
2022-10-25T11:30:23.070Z,98983.63
2022-10-25T11:31:30.633Z,98984.84
2022-10-25T11:32:51.501Z,98982.28
2022-10-25T11:34:11.948Z,98992.91
2022-10-25T11:35:44.708Z,98976.09
2022-10-25T11:37:06.543Z,98978.66
2022-10-25T11:38:23.091Z,98967.47
2022-10-25T11:40:02.803Z,98973.75
2022-10-25T11:41:35.093Z,98975.25
2022-10-25T11:42:51.015Z,98963.94
2022-10-25T11:44:06.572Z,98966.34
2022-10-25T11:45:25.045Z,98960.13
2022-10-25T11:46:40.070Z,98960.75
2022-10-25T11:47:49.999Z,98964.75
2022-10-25T11:49:03.849Z,98965.84
2022-10-25T11:50:40.091Z,98964.59
2022-10-25T11:52:03.761Z,98968.56
2022-10-25T11:53:20.753Z,98958.34
2022-10-25T11:54:28.380Z,98955.31
2022-10-25T11:55:42.108Z,98961.22
2022-10-25T11:57:20.310Z,98959.59
2022-10-25T11:58:39.337Z,98957.69
2022-10-25T11:59:46.752Z,98952.44
2022-10-25T12:01:16.156Z,98960.22
2022-10-25T12:02:35.884Z,98954.91
2022-10-25T12:03:49.481Z,98959.72
2022-10-25T12:05:22.022Z,98950.28
2022-10-25T12:06:39.953Z,98956.34
2022-10-25T12:07:50.796Z,98949.59
2022-10-25T12:09:06.419Z,98924.72
2022-10-25T12:10:37.459Z,98942.44
2022-10-25T12:11:55.606Z,98943.75
2022-10-25T12:13:02.951Z,98935.44
2022-10-25T12:14:10.808Z,98947.38
2022-10-25T12:15:20.709Z,98929.69
2022-10-25T12:16:24.534Z,98939.25
2022-10-25T12:17:31.169Z,98945.16
2022-10-25T12:18:40.815Z,98945.47
2022-10-25T12:19:46.034Z,98943.69
2022-10-25T12:20:50.185Z,98947.38
2022-10-25T12:22:01.757Z,98945.78
2022-10-25T12:23:10.825Z,98947.69
2022-10-25T12:24:22.399Z,98940.78
2022-10-25T12:25:29.824Z,98941.44
2022-10-25T12:26:37.118Z,98939.97
2022-10-25T12:27:40.350Z,98938.88
2022-10-25T12:28:47.611Z,98949.09
2022-10-25T12:29:56.818Z,98929.44
2022-10-25T12:31:13.181Z,98935.22
2022-10-25T12:32:32.405Z,98939.34
2022-10-25T12:33:48.498Z,98941.09
2022-10-25T12:34:53.611Z,98924.50
2022-10-25T12:36:01.863Z,98937.44
2022-10-25T12:37:08.329Z,98939.47
2022-10-25T12:38:19.690Z,98927.03
2022-10-25T12:39:41.001Z,98929.13
2022-10-25T12:40:47.837Z,98926.44
2022-10-25T12:41:56.273Z,98927.53
2022-10-25T12:43:11.503Z,98928.34
2022-10-25T12:44:38.585Z,98936.13
2022-10-25T12:46:05.152Z,98926.56
2022-10-25T12:47:06.754Z,98930.88
2022-10-25T12:48:27.815Z,98925.44
2022-10-25T12:49:52.351Z,98922.38
2022-10-25T12:51:37.765Z,98919.66
2022-10-25T12:52:51.173Z,98922.50
2022-10-25T12:54:03.771Z,98918.19
2022-10-25T12:55:08.577Z,98910.56
2022-10-25T12:56:47.371Z,98920.28
2022-10-25T12:58:10.182Z,98920.25
2022-10-25T12:59:26.971Z,98920.22
2022-10-25T13:00:47.000Z,98918.63
2022-10-25T13:01:51.760Z,98914.81
2022-10-25T13:03:31.028Z,98924.06
2022-10-25T13:04:55.417Z,98922.44
2022-10-25T13:06:03.862Z,98919.25
2022-10-25T13:07:07.861Z,98914.31
2022-10-25T13:08:11.656Z,98910.97
2022-10-25T13:09:22.229Z,98913.69
2022-10-25T13:10:27.430Z,98907.16